Strandell, Washington
Current Conditions -  °F | °C
As of 12:00 AM on Saturday 29 Nov 2014 (Local Time) from CYXX Reporting Station
Light Snow Light Snow  
Wind Chill: 15°   Ceiling: 3000
Heat Index: 27°   Visibility: 7mi
Dew Point: 18°   Wind: 14mph
Humidity: 69%   Direction: 70°ENE
Pressure: 29.58"   Gusts: 20mph
Location:  48.9068°N, 122.295°W
Report Text: CYXX 290800Z 07012G17KT 7SM -SN SCT020 OVC030 M03/M08 A2958 RMK SC4SC4 SLP017
Loading
Personal Weather Stations






























Interactive Weather Map New forecast layout! Learn more

10-Day Weather Forecast

Advertisements
Track Severe Weather on mobile